sensor_id;sensor_type;location;lat;lon;timestamp;temperature;humidity
80232;DHT22;74189;42.124;24.752;2024-03-08T00:00:10;7.90;84.90
80232;DHT22;74189;42.124;24.752;2024-03-08T00:02:38;8.00;84.50
80232;DHT22;74189;42.124;24.752;2024-03-08T00:05:06;8.10;83.90
80232;DHT22;74189;42.124;24.752;2024-03-08T00:07:41;8.00;83.80
80232;DHT22;74189;42.124;24.752;2024-03-08T00:10:08;8.20;83.10
80232;DHT22;74189;42.124;24.752;2024-03-08T00:12:40;8.30;82.90
80232;DHT22;74189;42.124;24.752;2024-03-08T00:15:14;8.40;81.70
80232;DHT22;74189;42.124;24.752;2024-03-08T00:17:41;8.40;81.00
80232;DHT22;74189;42.124;24.752;2024-03-08T00:20:08;8.50;80.90
80232;DHT22;74189;42.124;24.752;2024-03-08T00:22:35;8.60;79.90
80232;DHT22;74189;42.124;24.752;2024-03-08T00:25:02;8.70;79.60
80232;DHT22;74189;42.124;24.752;2024-03-08T00:27:29;8.70;79.50
80232;DHT22;74189;42.124;24.752;2024-03-08T00:29:58;8.80;79.60
80232;DHT22;74189;42.124;24.752;2024-03-08T00:32:24;8.80;78.90
80232;DHT22;74189;42.124;24.752;2024-03-08T00:34:51;8.80;79.40
80232;DHT22;74189;42.124;24.752;2024-03-08T00:37:23;8.80;79.50
80232;DHT22;74189;42.124;24.752;2024-03-08T00:39:50;8.80;79.40
80232;DHT22;74189;42.124;24.752;2024-03-08T00:42:17;8.90;79.00
80232;DHT22;74189;42.124;24.752;2024-03-08T00:44:44;9.10;77.30
80232;DHT22;74189;42.124;24.752;2024-03-08T00:47:10;9.30;77.00
80232;DHT22;74189;42.124;24.752;2024-03-08T00:49:37;9.20;75.70
80232;DHT22;74189;42.124;24.752;2024-03-08T00:52:05;9.10;77.30
80232;DHT22;74189;42.124;24.752;2024-03-08T00:54:34;9.10;79.00
80232;DHT22;74189;42.124;24.752;2024-03-08T00:57:02;8.90;79.60
80232;DHT22;74189;42.124;24.752;2024-03-08T00:59:29;8.90;79.70
80232;DHT22;74189;42.124;24.752;2024-03-08T01:01:56;9.00;78.90
80232;DHT22;74189;42.124;24.752;2024-03-08T01:04:23;8.80;79.50
80232;DHT22;74189;42.124;24.752;2024-03-08T01:06:51;8.90;78.20
80232;DHT22;74189;42.124;24.752;2024-03-08T01:09:18;8.90;79.10
80232;DHT22;74189;42.124;24.752;2024-03-08T01:11:44;8.90;79.60
80232;DHT22;74189;42.124;24.752;2024-03-08T01:14:10;9.10;77.60
80232;DHT22;74189;42.124;24.752;2024-03-08T01:16:39;9.00;78.00
80232;DHT22;74189;42.124;24.752;2024-03-08T01:19:05;9.10;77.10
80232;DHT22;74189;42.124;24.752;2024-03-08T01:21:32;9.10;77.20
80232;DHT22;74189;42.124;24.752;2024-03-08T01:23:58;9.00;78.10
80232;DHT22;74189;42.124;24.752;2024-03-08T01:26:24;8.90;79.20
80232;DHT22;74189;42.124;24.752;2024-03-08T01:28:50;9.00;78.30
80232;DHT22;74189;42.124;24.752;2024-03-08T01:31:17;8.90;79.10
80232;DHT22;74189;42.124;24.752;2024-03-08T01:33:43;8.90;78.60
80232;DHT22;74189;42.124;24.752;2024-03-08T01:36:09;9.00;77.70
80232;DHT22;74189;42.124;24.752;2024-03-08T01:38:35;9.10;76.50
80232;DHT22;74189;42.124;24.752;2024-03-08T01:41:02;9.20;76.50
80232;DHT22;74189;42.124;24.752;2024-03-08T01:43:32;9.00;78.10
80232;DHT22;74189;42.124;24.752;2024-03-08T01:45:59;9.00;77.70
80232;DHT22;74189;42.124;24.752;2024-03-08T01:48:27;9.00;77.60
80232;DHT22;74189;42.124;24.752;2024-03-08T01:50:56;9.00;77.20
80232;DHT22;74189;42.124;24.752;2024-03-08T01:53:24;9.00;78.10
80232;DHT22;74189;42.124;24.752;2024-03-08T01:55:54;9.10;78.70
80232;DHT22;74189;42.124;24.752;2024-03-08T01:58:22;9.00;78.00
80232;DHT22;74189;42.124;24.752;2024-03-08T02:00:49;8.90;79.00
80232;DHT22;74189;42.124;24.752;2024-03-08T02:03:16;9.00;78.10
80232;DHT22;74189;42.124;24.752;2024-03-08T02:05:42;9.10;76.50
80232;DHT22;74189;42.124;24.752;2024-03-08T02:08:10;9.40;75.00
80232;DHT22;74189;42.124;24.752;2024-03-08T02:10:41;9.30;75.60
80232;DHT22;74189;42.124;24.752;2024-03-08T02:13:11;9.10;76.00
80232;DHT22;74189;42.124;24.752;2024-03-08T02:15:54;9.10;76.30
80232;DHT22;74189;42.124;24.752;2024-03-08T02:18:21;9.20;75.90
80232;DHT22;74189;42.124;24.752;2024-03-08T02:23:21;9.00;77.70
80232;DHT22;74189;42.124;24.752;2024-03-08T02:25:48;9.00;77.50
80232;DHT22;74189;42.124;24.752;2024-03-08T02:28:15;9.00;77.90
80232;DHT22;74189;42.124;24.752;2024-03-08T02:30:41;9.00;76.80
80232;DHT22;74189;42.124;24.752;2024-03-08T02:33:08;9.10;76.60
80232;DHT22;74189;42.124;24.752;2024-03-08T02:35:37;9.10;76.60
80232;DHT22;74189;42.124;24.752;2024-03-08T02:38:04;9.20;75.80
80232;DHT22;74189;42.124;24.752;2024-03-08T02:40:31;9.20;75.80
80232;DHT22;74189;42.124;24.752;2024-03-08T02:42:58;9.00;76.80
80232;DHT22;74189;42.124;24.752;2024-03-08T02:45:24;9.10;76.50
80232;DHT22;74189;42.124;24.752;2024-03-08T02:47:51;8.90;77.10
80232;DHT22;74189;42.124;24.752;2024-03-08T02:50:17;9.00;76.50
80232;DHT22;74189;42.124;24.752;2024-03-08T02:52:43;9.00;76.80
80232;DHT22;74189;42.124;24.752;2024-03-08T02:55:12;8.70;78.20
80232;DHT22;74189;42.124;24.752;2024-03-08T02:57:42;8.70;78.30
80232;DHT22;74189;42.124;24.752;2024-03-08T03:00:13;8.80;78.20
80232;DHT22;74189;42.124;24.752;2024-03-08T03:02:41;8.60;79.00
80232;DHT22;74189;42.124;24.752;2024-03-08T03:05:08;8.60;79.00
80232;DHT22;74189;42.124;24.752;2024-03-08T03:07:35;8.50;79.60
80232;DHT22;74189;42.124;24.752;2024-03-08T03:10:02;8.50;79.40
80232;DHT22;74189;42.124;24.752;2024-03-08T03:12:29;8.40;80.70
80232;DHT22;74189;42.124;24.752;2024-03-08T03:14:56;8.50;80.00
80232;DHT22;74189;42.124;24.752;2024-03-08T03:17:23;8.60;79.60
80232;DHT22;74189;42.124;24.752;2024-03-08T03:19:51;8.60;79.30
80232;DHT22;74189;42.124;24.752;2024-03-08T03:22:22;8.50;80.10
80232;DHT22;74189;42.124;24.752;2024-03-08T03:24:49;8.60;80.20
80232;DHT22;74189;42.124;24.752;2024-03-08T03:27:17;8.30;82.00
80232;DHT22;74189;42.124;24.752;2024-03-08T03:29:44;8.20;82.80
80232;DHT22;74189;42.124;24.752;2024-03-08T03:32:15;8.30;82.20
80232;DHT22;74189;42.124;24.752;2024-03-08T03:34:42;8.00;83.50
80232;DHT22;74189;42.124;24.752;2024-03-08T03:37:10;8.00;85.60
80232;DHT22;74189;42.124;24.752;2024-03-08T03:39:40;8.10;84.50
80232;DHT22;74189;42.124;24.752;2024-03-08T03:42:18;7.80;85.80
80232;DHT22;74189;42.124;24.752;2024-03-08T03:44:47;7.70;86.80
80232;DHT22;74189;42.124;24.752;2024-03-08T03:47:14;8.00;86.30
80232;DHT22;74189;42.124;24.752;2024-03-08T03:49:41;7.90;85.30
80232;DHT22;74189;42.124;24.752;2024-03-08T03:52:09;8.10;85.90
80232;DHT22;74189;42.124;24.752;2024-03-08T03:54:36;8.20;84.70
80232;DHT22;74189;42.124;24.752;2024-03-08T03:57:02;8.30;84.50
80232;DHT22;74189;42.124;24.752;2024-03-08T03:59:29;8.30;84.50
80232;DHT22;74189;42.124;24.752;2024-03-08T04:02:01;8.20;85.10
80232;DHT22;74189;42.124;24.752;2024-03-08T04:04:29;8.40;84.80
80232;DHT22;74189;42.124;24.752;2024-03-08T04:06:56;8.40;83.30
80232;DHT22;74189;42.124;24.752;2024-03-08T04:09:22;8.20;84.40
80232;DHT22;74189;42.124;24.752;2024-03-08T04:11:49;8.40;83.70
80232;DHT22;74189;42.124;24.752;2024-03-08T04:14:16;8.40;82.80
80232;DHT22;74189;42.124;24.752;2024-03-08T04:16:42;8.30;83.80
80232;DHT22;74189;42.124;24.752;2024-03-08T04:19:08;8.40;82.90
80232;DHT22;74189;42.124;24.752;2024-03-08T04:21:42;8.40;83.70
80232;DHT22;74189;42.124;24.752;2024-03-08T04:24:11;8.30;83.90
80232;DHT22;74189;42.124;24.752;2024-03-08T04:26:37;8.30;83.00
80232;DHT22;74189;42.124;24.752;2024-03-08T04:29:04;8.20;82.70
80232;DHT22;74189;42.124;24.752;2024-03-08T04:31:30;7.80;84.90
80232;DHT22;74189;42.124;24.752;2024-03-08T04:33:57;7.60;86.50
80232;DHT22;74189;42.124;24.752;2024-03-08T04:36:26;7.70;86.80
80232;DHT22;74189;42.124;24.752;2024-03-08T04:38:52;7.80;86.10
80232;DHT22;74189;42.124;24.752;2024-03-08T04:41:18;7.90;85.00
80232;DHT22;74189;42.124;24.752;2024-03-08T04:43:46;7.90;83.80
80232;DHT22;74189;42.124;24.752;2024-03-08T04:46:12;7.90;84.10
80232;DHT22;74189;42.124;24.752;2024-03-08T04:48:39;7.90;84.40
80232;DHT22;74189;42.124;24.752;2024-03-08T04:51:05;7.80;84.50
80232;DHT22;74189;42.124;24.752;2024-03-08T04:53:31;8.00;82.90
80232;DHT22;74189;42.124;24.752;2024-03-08T04:55:59;7.90;82.60
80232;DHT22;74189;42.124;24.752;2024-03-08T04:58:25;7.80;84.00
80232;DHT22;74189;42.124;24.752;2024-03-08T05:00:51;7.90;83.20
80232;DHT22;74189;42.124;24.752;2024-03-08T05:03:18;7.90;83.10
80232;DHT22;74189;42.124;24.752;2024-03-08T05:05:44;7.80;83.00
80232;DHT22;74189;42.124;24.752;2024-03-08T05:08:10;7.60;84.00
80232;DHT22;74189;42.124;24.752;2024-03-08T05:10:36;7.70;83.30
80232;DHT22;74189;42.124;24.752;2024-03-08T05:13:03;7.80;83.20
80232;DHT22;74189;42.124;24.752;2024-03-08T05:15:29;7.80;83.40
80232;DHT22;74189;42.124;24.752;2024-03-08T05:17:55;7.80;83.40
80232;DHT22;74189;42.124;24.752;2024-03-08T05:20:23;7.60;83.40
80232;DHT22;74189;42.124;24.752;2024-03-08T05:22:53;7.70;84.00
80232;DHT22;74189;42.124;24.752;2024-03-08T05:25:19;7.60;83.60
80232;DHT22;74189;42.124;24.752;2024-03-08T05:27:45;7.70;83.40
80232;DHT22;74189;42.124;24.752;2024-03-08T05:30:13;7.80;83.40
80232;DHT22;74189;42.124;24.752;2024-03-08T05:32:44;7.70;83.80
80232;DHT22;74189;42.124;24.752;2024-03-08T05:35:12;7.70;84.20
80232;DHT22;74189;42.124;24.752;2024-03-08T05:37:42;8.00;82.50
80232;DHT22;74189;42.124;24.752;2024-03-08T05:40:08;7.90;83.10
80232;DHT22;74189;42.124;24.752;2024-03-08T05:42:36;8.20;81.10
80232;DHT22;74189;42.124;24.752;2024-03-08T05:45:05;8.20;80.70
80232;DHT22;74189;42.124;24.752;2024-03-08T05:47:36;8.20;81.00
80232;DHT22;74189;42.124;24.752;2024-03-08T05:50:05;8.20;80.90
80232;DHT22;74189;42.124;24.752;2024-03-08T05:52:36;8.40;80.70
80232;DHT22;74189;42.124;24.752;2024-03-08T05:55:04;8.30;79.60
80232;DHT22;74189;42.124;24.752;2024-03-08T05:57:33;8.00;81.30
80232;DHT22;74189;42.124;24.752;2024-03-08T06:00:00;8.10;81.60
80232;DHT22;74189;42.124;24.752;2024-03-08T06:02:26;8.10;82.10
80232;DHT22;74189;42.124;24.752;2024-03-08T06:04:52;8.10;82.00
80232;DHT22;74189;42.124;24.752;2024-03-08T06:07:19;7.90;83.10
80232;DHT22;74189;42.124;24.752;2024-03-08T06:09:46;8.20;81.10
80232;DHT22;74189;42.124;24.752;2024-03-08T06:12:14;8.30;80.90
80232;DHT22;74189;42.124;24.752;2024-03-08T06:14:45;8.40;79.80
80232;DHT22;74189;42.124;24.752;2024-03-08T06:17:12;8.30;80.90
80232;DHT22;74189;42.124;24.752;2024-03-08T06:19:38;8.30;80.70
80232;DHT22;74189;42.124;24.752;2024-03-08T06:22:04;8.40;81.20
80232;DHT22;74189;42.124;24.752;2024-03-08T06:24:32;8.50;80.40
80232;DHT22;74189;42.124;24.752;2024-03-08T06:26:58;8.70;79.10
80232;DHT22;74189;42.124;24.752;2024-03-08T06:29:24;8.80;78.40
80232;DHT22;74189;42.124;24.752;2024-03-08T06:31:50;9.00;77.40
80232;DHT22;74189;42.124;24.752;2024-03-08T06:34:17;8.90;77.30
80232;DHT22;74189;42.124;24.752;2024-03-08T06:36:46;8.90;77.20
80232;DHT22;74189;42.124;24.752;2024-03-08T06:39:12;9.00;77.40
80232;DHT22;74189;42.124;24.752;2024-03-08T06:41:41;9.00;76.80
80232;DHT22;74189;42.124;24.752;2024-03-08T06:44:07;9.10;77.70
80232;DHT22;74189;42.124;24.752;2024-03-08T06:46:34;8.80;77.20
80232;DHT22;74189;42.124;24.752;2024-03-08T06:49:00;8.90;77.40
80232;DHT22;74189;42.124;24.752;2024-03-08T06:51:27;8.80;77.40
80232;DHT22;74189;42.124;24.752;2024-03-08T06:53:53;8.70;77.70
80232;DHT22;74189;42.124;24.752;2024-03-08T06:56:20;8.70;78.20
80232;DHT22;74189;42.124;24.752;2024-03-08T06:58:46;8.80;78.00
80232;DHT22;74189;42.124;24.752;2024-03-08T07:01:13;8.90;77.50
80232;DHT22;74189;42.124;24.752;2024-03-08T07:03:43;9.10;76.80
80232;DHT22;74189;42.124;24.752;2024-03-08T07:06:13;9.10;76.10
80232;DHT22;74189;42.124;24.752;2024-03-08T07:08:40;9.30;75.50
80232;DHT22;74189;42.124;24.752;2024-03-08T07:11:06;9.30;75.70
80232;DHT22;74189;42.124;24.752;2024-03-08T07:13:33;9.20;76.70
80232;DHT22;74189;42.124;24.752;2024-03-08T07:15:59;9.10;77.10
80232;DHT22;74189;42.124;24.752;2024-03-08T07:18:26;9.10;76.80
80232;DHT22;74189;42.124;24.752;2024-03-08T07:20:55;9.20;76.80
80232;DHT22;74189;42.124;24.752;2024-03-08T07:23:22;9.30;76.30
80232;DHT22;74189;42.124;24.752;2024-03-08T07:26:07;9.30;75.80
80232;DHT22;74189;42.124;24.752;2024-03-08T07:28:33;9.10;75.70
80232;DHT22;74189;42.124;24.752;2024-03-08T07:30:59;8.90;77.20
80232;DHT22;74189;42.124;24.752;2024-03-08T07:33:38;9.10;76.70
80232;DHT22;74189;42.124;24.752;2024-03-08T07:36:05;9.00;76.80
80232;DHT22;74189;42.124;24.752;2024-03-08T07:38:31;9.10;75.90
80232;DHT22;74189;42.124;24.752;2024-03-08T07:40:57;9.10;75.90
80232;DHT22;74189;42.124;24.752;2024-03-08T07:43:23;9.10;75.80
80232;DHT22;74189;42.124;24.752;2024-03-08T07:45:49;9.00;75.80
80232;DHT22;74189;42.124;24.752;2024-03-08T07:48:17;9.10;75.20
80232;DHT22;74189;42.124;24.752;2024-03-08T07:50:43;9.20;74.90
80232;DHT22;74189;42.124;24.752;2024-03-08T07:53:09;9.30;75.10
80232;DHT22;74189;42.124;24.752;2024-03-08T07:55:36;9.60;72.90
80232;DHT22;74189;42.124;24.752;2024-03-08T07:58:03;9.70;72.80
80232;DHT22;74189;42.124;24.752;2024-03-08T08:00:30;9.60;72.90
80232;DHT22;74189;42.124;24.752;2024-03-08T08:02:57;9.70;71.90
80232;DHT22;74189;42.124;24.752;2024-03-08T08:05:23;9.80;72.10
80232;DHT22;74189;42.124;24.752;2024-03-08T08:07:50;9.90;73.00
80232;DHT22;74189;42.124;24.752;2024-03-08T08:10:18;9.90;72.90
80232;DHT22;74189;42.124;24.752;2024-03-08T08:12:48;9.90;72.00
80232;DHT22;74189;42.124;24.752;2024-03-08T08:15:14;10.00;71.40
80232;DHT22;74189;42.124;24.752;2024-03-08T08:17:44;10.10;70.30
80232;DHT22;74189;42.124;24.752;2024-03-08T08:20:11;10.10;70.10
80232;DHT22;74189;42.124;24.752;2024-03-08T08:22:42;10.00;71.10
80232;DHT22;74189;42.124;24.752;2024-03-08T08:25:11;10.00;71.60
80232;DHT22;74189;42.124;24.752;2024-03-08T08:27:41;10.00;72.00
80232;DHT22;74189;42.124;24.752;2024-03-08T08:30:11;10.20;70.90
80232;DHT22;74189;42.124;24.752;2024-03-08T08:32:38;10.30;69.90
80232;DHT22;74189;42.124;24.752;2024-03-08T08:35:10;10.30;70.10
80232;DHT22;74189;42.124;24.752;2024-03-08T08:37:41;10.20;69.90
80232;DHT22;74189;42.124;24.752;2024-03-08T08:40:08;10.20;70.10
80232;DHT22;74189;42.124;24.752;2024-03-08T08:42:40;10.30;71.00
80232;DHT22;74189;42.124;24.752;2024-03-08T08:45:07;10.40;69.90
80232;DHT22;74189;42.124;24.752;2024-03-08T08:47:35;10.60;70.40
80232;DHT22;74189;42.124;24.752;2024-03-08T08:50:02;10.70;68.30
80232;DHT22;74189;42.124;24.752;2024-03-08T08:52:32;10.90;68.20
80232;DHT22;74189;42.124;24.752;2024-03-08T08:54:58;10.90;68.30
80232;DHT22;74189;42.124;24.752;2024-03-08T08:57:25;11.10;67.50
80232;DHT22;74189;42.124;24.752;2024-03-08T08:59:53;11.10;67.50
80232;DHT22;74189;42.124;24.752;2024-03-08T09:02:19;11.10;66.50
80232;DHT22;74189;42.124;24.752;2024-03-08T09:04:47;11.00;67.10
80232;DHT22;74189;42.124;24.752;2024-03-08T09:07:14;10.90;67.20
80232;DHT22;74189;42.124;24.752;2024-03-08T09:09:42;10.90;67.10
80232;DHT22;74189;42.124;24.752;2024-03-08T09:12:09;11.00;66.70
80232;DHT22;74189;42.124;24.752;2024-03-08T09:14:40;11.00;67.00
80232;DHT22;74189;42.124;24.752;2024-03-08T09:17:07;11.20;65.40
80232;DHT22;74189;42.124;24.752;2024-03-08T09:19:35;11.20;65.10
80232;DHT22;74189;42.124;24.752;2024-03-08T09:22:03;11.40;65.00
80232;DHT22;74189;42.124;24.752;2024-03-08T09:24:30;11.40;64.50
80232;DHT22;74189;42.124;24.752;2024-03-08T09:26:57;11.50;64.70
80232;DHT22;74189;42.124;24.752;2024-03-08T09:29:24;11.40;64.40
80232;DHT22;74189;42.124;24.752;2024-03-08T09:31:51;11.50;66.20
80232;DHT22;74189;42.124;24.752;2024-03-08T09:34:20;11.70;64.40
80232;DHT22;74189;42.124;24.752;2024-03-08T09:36:47;11.80;64.00
80232;DHT22;74189;42.124;24.752;2024-03-08T09:39:13;11.80;64.00
80232;DHT22;74189;42.124;24.752;2024-03-08T09:41:47;11.80;63.10
80232;DHT22;74189;42.124;24.752;2024-03-08T09:44:16;11.80;64.00
80232;DHT22;74189;42.124;24.752;2024-03-08T09:46:43;11.90;63.10
80232;DHT22;74189;42.124;24.752;2024-03-08T09:49:10;11.80;63.60
80232;DHT22;74189;42.124;24.752;2024-03-08T09:51:38;11.80;63.90
80232;DHT22;74189;42.124;24.752;2024-03-08T09:54:07;11.70;64.30
80232;DHT22;74189;42.124;24.752;2024-03-08T09:56:35;11.60;63.70
80232;DHT22;74189;42.124;24.752;2024-03-08T09:59:02;11.50;64.10
80232;DHT22;74189;42.124;24.752;2024-03-08T10:01:31;11.30;64.10
80232;DHT22;74189;42.124;24.752;2024-03-08T10:03:58;11.30;64.80
80232;DHT22;74189;42.124;24.752;2024-03-08T10:06:24;11.30;64.30
80232;DHT22;74189;42.124;24.752;2024-03-08T10:08:51;11.50;64.40
80232;DHT22;74189;42.124;24.752;2024-03-08T10:11:21;11.40;63.90
80232;DHT22;74189;42.124;24.752;2024-03-08T10:13:48;11.40;65.40
80232;DHT22;74189;42.124;24.752;2024-03-08T10:16:16;11.60;64.30
80232;DHT22;74189;42.124;24.752;2024-03-08T10:18:46;11.60;63.80
80232;DHT22;74189;42.124;24.752;2024-03-08T10:21:12;11.70;63.60
80232;DHT22;74189;42.124;24.752;2024-03-08T10:23:39;11.80;63.60
80232;DHT22;74189;42.124;24.752;2024-03-08T10:26:12;11.80;63.40
80232;DHT22;74189;42.124;24.752;2024-03-08T10:28:47;11.90;63.10
80232;DHT22;74189;42.124;24.752;2024-03-08T10:31:16;12.00;61.90
80232;DHT22;74189;42.124;24.752;2024-03-08T10:33:43;12.20;61.70
80232;DHT22;74189;42.124;24.752;2024-03-08T10:36:11;12.20;61.80
80232;DHT22;74189;42.124;24.752;2024-03-08T10:38:40;12.30;61.50
80232;DHT22;74189;42.124;24.752;2024-03-08T10:41:08;12.30;62.10
80232;DHT22;74189;42.124;24.752;2024-03-08T10:44:12;12.20;62.10
80232;DHT22;74189;42.124;24.752;2024-03-08T10:49:37;12.10;62.00
80232;DHT22;74189;42.124;24.752;2024-03-08T10:52:05;12.20;62.70
80232;DHT22;74189;42.124;24.752;2024-03-08T10:54:36;12.40;61.00
80232;DHT22;74189;42.124;24.752;2024-03-08T10:57:06;12.60;60.50
80232;DHT22;74189;42.124;24.752;2024-03-08T10:59:35;12.50;60.40
80232;DHT22;74189;42.124;24.752;2024-03-08T11:02:01;12.50;60.80
80232;DHT22;74189;42.124;24.752;2024-03-08T11:04:28;12.70;59.90
80232;DHT22;74189;42.124;24.752;2024-03-08T11:07:01;12.40;61.00
80232;DHT22;74189;42.124;24.752;2024-03-08T11:09:35;12.40;60.80
80232;DHT22;74189;42.124;24.752;2024-03-08T11:12:21;11.90;62.10
80232;DHT22;74189;42.124;24.752;2024-03-08T11:14:51;11.70;63.10
80232;DHT22;74189;42.124;24.752;2024-03-08T11:19:57;12.20;61.80
80232;DHT22;74189;42.124;24.752;2024-03-08T11:22:29;12.20;61.20
80232;DHT22;74189;42.124;24.752;2024-03-08T11:25:04;12.30;61.40
80232;DHT22;74189;42.124;24.752;2024-03-08T11:27:36;12.50;61.10
80232;DHT22;74189;42.124;24.752;2024-03-08T11:30:07;12.60;62.30
80232;DHT22;74189;42.124;24.752;2024-03-08T11:32:38;12.60;61.00
80232;DHT22;74189;42.124;24.752;2024-03-08T11:35:08;12.60;59.80
80232;DHT22;74189;42.124;24.752;2024-03-08T11:37:44;12.80;59.60
80232;DHT22;74189;42.124;24.752;2024-03-08T11:40:14;12.80;59.90
80232;DHT22;74189;42.124;24.752;2024-03-08T11:42:50;12.80;60.90
80232;DHT22;74189;42.124;24.752;2024-03-08T11:45:21;12.70;61.00
80232;DHT22;74189;42.124;24.752;2024-03-08T11:47:47;12.80;60.90
80232;DHT22;74189;42.124;24.752;2024-03-08T11:50:14;12.80;60.60
80232;DHT22;74189;42.124;24.752;2024-03-08T11:52:41;13.10;59.50
80232;DHT22;74189;42.124;24.752;2024-03-08T11:55:09;13.40;58.50
80232;DHT22;74189;42.124;24.752;2024-03-08T11:57:38;13.70;58.00
80232;DHT22;74189;42.124;24.752;2024-03-08T12:00:05;13.90;57.50
80232;DHT22;74189;42.124;24.752;2024-03-08T12:02:35;14.10;56.10
80232;DHT22;74189;42.124;24.752;2024-03-08T12:05:04;14.20;54.80
80232;DHT22;74189;42.124;24.752;2024-03-08T12:07:32;14.00;55.90
80232;DHT22;74189;42.124;24.752;2024-03-08T12:10:17;14.10;54.80
80232;DHT22;74189;42.124;24.752;2024-03-08T12:12:52;14.30;53.80
80232;DHT22;74189;42.124;24.752;2024-03-08T12:15:21;14.30;53.80
80232;DHT22;74189;42.124;24.752;2024-03-08T12:17:49;14.40;54.10
80232;DHT22;74189;42.124;24.752;2024-03-08T12:20:25;14.30;54.40
80232;DHT22;74189;42.124;24.752;2024-03-08T12:22:53;14.20;54.90
80232;DHT22;74189;42.124;24.752;2024-03-08T12:25:20;14.20;54.90
80232;DHT22;74189;42.124;24.752;2024-03-08T12:27:46;14.10;55.70
80232;DHT22;74189;42.124;24.752;2024-03-08T12:35:23;12.80;59.00
80232;DHT22;74189;42.124;24.752;2024-03-08T12:37:54;11.90;62.20
80232;DHT22;74189;42.124;24.752;2024-03-08T12:40:29;11.60;62.70
80232;DHT22;74189;42.124;24.752;2024-03-08T12:43:01;11.60;64.10
80232;DHT22;74189;42.124;24.752;2024-03-08T12:45:28;11.80;62.30
80232;DHT22;74189;42.124;24.752;2024-03-08T12:47:55;12.10;61.70
80232;DHT22;74189;42.124;24.752;2024-03-08T12:50:22;12.50;60.20
80232;DHT22;74189;42.124;24.752;2024-03-08T12:52:51;12.50;58.80
80232;DHT22;74189;42.124;24.752;2024-03-08T12:55:18;11.70;61.20
80232;DHT22;74189;42.124;24.752;2024-03-08T12:57:45;11.60;62.60
80232;DHT22;74189;42.124;24.752;2024-03-08T13:00:13;11.80;62.00
80232;DHT22;74189;42.124;24.752;2024-03-08T13:02:48;12.00;60.80
80232;DHT22;74189;42.124;24.752;2024-03-08T13:05:15;12.20;59.90
80232;DHT22;74189;42.124;24.752;2024-03-08T13:07:42;11.60;61.00
80232;DHT22;74189;42.124;24.752;2024-03-08T13:10:15;11.70;60.70
80232;DHT22;74189;42.124;24.752;2024-03-08T13:12:42;11.70;61.10
80232;DHT22;74189;42.124;24.752;2024-03-08T13:15:09;12.10;59.90
80232;DHT22;74189;42.124;24.752;2024-03-08T13:17:40;12.10;60.00
80232;DHT22;74189;42.124;24.752;2024-03-08T13:20:09;12.20;59.80
80232;DHT22;74189;42.124;24.752;2024-03-08T13:22:42;12.30;59.50
80232;DHT22;74189;42.124;24.752;2024-03-08T13:25:08;12.00;59.80
80232;DHT22;74189;42.124;24.752;2024-03-08T13:27:42;11.90;60.40
80232;DHT22;74189;42.124;24.752;2024-03-08T13:30:12;11.80;59.60
80232;DHT22;74189;42.124;24.752;2024-03-08T13:32:42;11.70;60.20
80232;DHT22;74189;42.124;24.752;2024-03-08T13:35:12;11.70;60.90
80232;DHT22;74189;42.124;24.752;2024-03-08T13:37:42;11.90;60.10
80232;DHT22;74189;42.124;24.752;2024-03-08T13:40:10;11.90;59.80
80232;DHT22;74189;42.124;24.752;2024-03-08T13:42:47;11.90;59.60
80232;DHT22;74189;42.124;24.752;2024-03-08T13:45:15;11.60;59.80
80232;DHT22;74189;42.124;24.752;2024-03-08T13:47:50;11.30;61.60
80232;DHT22;74189;42.124;24.752;2024-03-08T13:50:20;11.30;61.80
80232;DHT22;74189;42.124;24.752;2024-03-08T13:52:50;11.00;62.40
80232;DHT22;74189;42.124;24.752;2024-03-08T13:55:23;11.10;62.10
80232;DHT22;74189;42.124;24.752;2024-03-08T13:57:53;11.50;61.50
80232;DHT22;74189;42.124;24.752;2024-03-08T14:00:19;11.80;60.40
80232;DHT22;74189;42.124;24.752;2024-03-08T14:02:50;12.10;60.40
80232;DHT22;74189;42.124;24.752;2024-03-08T14:05:22;12.10;59.80
80232;DHT22;74189;42.124;24.752;2024-03-08T14:07:48;12.30;58.90
80232;DHT22;74189;42.124;24.752;2024-03-08T14:10:15;12.50;58.30
80232;DHT22;74189;42.124;24.752;2024-03-08T14:12:44;12.60;58.10
80232;DHT22;74189;42.124;24.752;2024-03-08T14:15:10;12.80;57.00
80232;DHT22;74189;42.124;24.752;2024-03-08T14:17:38;13.00;56.40
80232;DHT22;74189;42.124;24.752;2024-03-08T14:20:05;13.30;55.00
80232;DHT22;74189;42.124;24.752;2024-03-08T14:22:32;13.20;56.40
80232;DHT22;74189;42.124;24.752;2024-03-08T14:24:58;12.90;57.30
80232;DHT22;74189;42.124;24.752;2024-03-08T14:27:24;12.90;58.10
80232;DHT22;74189;42.124;24.752;2024-03-08T14:29:50;12.90;57.90
80232;DHT22;74189;42.124;24.752;2024-03-08T14:32:17;12.40;58.40
80232;DHT22;74189;42.124;24.752;2024-03-08T14:34:45;12.20;59.80
80232;DHT22;74189;42.124;24.752;2024-03-08T14:37:12;12.00;58.90
80232;DHT22;74189;42.124;24.752;2024-03-08T14:39:39;11.90;59.80
80232;DHT22;74189;42.124;24.752;2024-03-08T14:42:06;11.90;60.20
80232;DHT22;74189;42.124;24.752;2024-03-08T14:44:34;12.00;60.00
80232;DHT22;74189;42.124;24.752;2024-03-08T14:47:01;12.30;59.60
80232;DHT22;74189;42.124;24.752;2024-03-08T14:49:31;12.40;59.00
80232;DHT22;74189;42.124;24.752;2024-03-08T14:51:57;12.20;60.10
80232;DHT22;74189;42.124;24.752;2024-03-08T14:54:24;12.50;60.10
80232;DHT22;74189;42.124;24.752;2024-03-08T14:56:50;12.10;60.90
80232;DHT22;74189;42.124;24.752;2024-03-08T14:59:17;12.20;61.30
80232;DHT22;74189;42.124;24.752;2024-03-08T15:01:46;12.10;61.40
80232;DHT22;74189;42.124;24.752;2024-03-08T15:04:12;12.30;60.80
80232;DHT22;74189;42.124;24.752;2024-03-08T15:06:38;12.40;60.30
80232;DHT22;74189;42.124;24.752;2024-03-08T15:09:05;12.20;60.70
80232;DHT22;74189;42.124;24.752;2024-03-08T15:11:38;11.70;62.20
80232;DHT22;74189;42.124;24.752;2024-03-08T15:14:05;11.60;63.60
80232;DHT22;74189;42.124;24.752;2024-03-08T15:16:40;11.90;62.00
80232;DHT22;74189;42.124;24.752;2024-03-08T15:19:07;11.90;61.50
80232;DHT22;74189;42.124;24.752;2024-03-08T15:21:34;12.00;61.30
80232;DHT22;74189;42.124;24.752;2024-03-08T15:24:01;12.00;60.70
80232;DHT22;74189;42.124;24.752;2024-03-08T15:26:29;12.10;60.20
80232;DHT22;74189;42.124;24.752;2024-03-08T15:28:58;12.10;60.60
80232;DHT22;74189;42.124;24.752;2024-03-08T15:31:25;11.80;60.20
80232;DHT22;74189;42.124;24.752;2024-03-08T15:33:53;11.40;61.00
80232;DHT22;74189;42.124;24.752;2024-03-08T15:36:32;11.50;61.60
80232;DHT22;74189;42.124;24.752;2024-03-08T15:39:00;11.20;62.90
80232;DHT22;74189;42.124;24.752;2024-03-08T15:41:27;11.30;63.90
80232;DHT22;74189;42.124;24.752;2024-03-08T15:43:53;11.40;64.30